sensor_id;sensor_type;location;lat;lon;timestamp;pressure;altitude;pressure_sealevel;temperature;humidity
81125;BME280;72192;52.114;5.424;2023-11-21T00:01:57;101236.53;;;5.36;100.00
81125;BME280;72192;52.114;5.424;2023-11-21T00:04:37;101237.75;;;5.32;100.00
81125;BME280;72192;52.114;5.424;2023-11-21T00:07:17;101242.34;;;5.30;100.00
81125;BME280;72192;52.114;5.424;2023-11-21T00:09:56;101244.31;;;5.28;100.00
81125;BME280;72192;52.114;5.424;2023-11-21T00:12:36;101251.50;;;5.27;100.00
81125;BME280;72192;52.114;5.424;2023-11-21T00:15:18;101241.50;;;5.29;100.00
81125;BME280;72192;52.114;5.424;2023-11-21T00:17:58;101248.56;;;5.30;100.00
81125;BME280;72192;52.114;5.424;2023-11-21T00:20:38;101242.28;;;5.31;100.00
81125;BME280;72192;52.114;5.424;2023-11-21T00:23:18;101243.59;;;5.26;100.00
81125;BME280;72192;52.114;5.424;2023-11-21T00:25:58;101247.38;;;5.23;100.00
81125;BME280;72192;52.114;5.424;2023-11-21T00:28:38;101251.88;;;5.23;100.00
81125;BME280;72192;52.114;5.424;2023-11-21T00:31:18;101252.00;;;5.21;100.00
81125;BME280;72192;52.114;5.424;2023-11-21T00:33:57;101250.25;;;5.20;100.00
81125;BME280;72192;52.114;5.424;2023-11-21T00:36:37;101253.19;;;5.17;100.00
81125;BME280;72192;52.114;5.424;2023-11-21T00:39:17;101259.50;;;5.16;100.00
81125;BME280;72192;52.114;5.424;2023-11-21T00:41:56;101257.94;;;5.13;100.00
81125;BME280;72192;52.114;5.424;2023-11-21T00:44:38;101255.47;;;5.10;100.00
81125;BME280;72192;52.114;5.424;2023-11-21T00:47:17;101263.63;;;5.09;100.00
81125;BME280;72192;52.114;5.424;2023-11-21T00:49:59;101263.75;;;5.07;100.00
81125;BME280;72192;52.114;5.424;2023-11-21T00:52:39;101256.81;;;5.05;100.00
81125;BME280;72192;52.114;5.424;2023-11-21T00:55:22;101271.16;;;5.04;100.00
81125;BME280;72192;52.114;5.424;2023-11-21T00:58:01;101269.47;;;5.03;100.00
81125;BME280;72192;52.114;5.424;2023-11-21T01:00:42;101270.19;;;5.05;100.00
81125;BME280;72192;52.114;5.424;2023-11-21T01:03:22;101273.97;;;5.02;100.00
81125;BME280;72192;52.114;5.424;2023-11-21T01:06:01;101277.50;;;5.03;100.00
81125;BME280;72192;52.114;5.424;2023-11-21T01:08:43;101281.00;;;5.03;100.00
81125;BME280;72192;52.114;5.424;2023-11-21T01:11:23;101286.38;;;5.03;100.00
81125;BME280;72192;52.114;5.424;2023-11-21T01:14:06;101294.16;;;5.06;100.00
81125;BME280;72192;52.114;5.424;2023-11-21T01:16:47;101293.91;;;5.09;100.00
81125;BME280;72192;52.114;5.424;2023-11-21T01:19:27;101295.53;;;5.12;100.00
81125;BME280;72192;52.114;5.424;2023-11-21T01:22:07;101295.13;;;5.05;100.00
81125;BME280;72192;52.114;5.424;2023-11-21T01:24:47;101296.81;;;5.06;100.00
81125;BME280;72192;52.114;5.424;2023-11-21T01:27:29;101291.47;;;5.06;100.00
81125;BME280;72192;52.114;5.424;2023-11-21T01:30:09;101283.69;;;5.03;100.00
81125;BME280;72192;52.114;5.424;2023-11-21T01:32:49;101290.88;;;5.03;100.00
81125;BME280;72192;52.114;5.424;2023-11-21T01:35:29;101294.16;;;5.06;100.00
81125;BME280;72192;52.114;5.424;2023-11-21T01:38:08;101295.72;;;5.09;100.00
81125;BME280;72192;52.114;5.424;2023-11-21T01:40:48;101301.09;;;5.09;100.00
81125;BME280;72192;52.114;5.424;2023-11-21T01:43:29;101299.63;;;5.05;100.00
81125;BME280;72192;52.114;5.424;2023-11-21T01:46:10;101301.19;;;5.07;100.00
81125;BME280;72192;52.114;5.424;2023-11-21T01:48:50;101305.97;;;5.15;100.00
81125;BME280;72192;52.114;5.424;2023-11-21T01:51:31;101308.06;;;5.23;100.00
81125;BME280;72192;52.114;5.424;2023-11-21T01:54:12;101313.91;;;5.28;100.00
81125;BME280;72192;52.114;5.424;2023-11-21T01:56:52;101315.28;;;5.33;100.00
81125;BME280;72192;52.114;5.424;2023-11-21T01:59:36;101307.84;;;5.37;100.00
81125;BME280;72192;52.114;5.424;2023-11-21T02:02:17;101313.72;;;5.42;100.00
81125;BME280;72192;52.114;5.424;2023-11-21T02:04:57;101316.75;;;5.48;100.00
81125;BME280;72192;52.114;5.424;2023-11-21T02:07:36;101321.63;;;5.55;100.00
81125;BME280;72192;52.114;5.424;2023-11-21T02:10:19;101317.84;;;5.57;100.00
81125;BME280;72192;52.114;5.424;2023-11-21T02:13:03;101336.25;;;5.62;100.00
81125;BME280;72192;52.114;5.424;2023-11-21T02:15:42;101340.28;;;5.67;100.00
81125;BME280;72192;52.114;5.424;2023-11-21T02:18:22;101347.13;;;5.71;100.00
81125;BME280;72192;52.114;5.424;2023-11-21T02:21:04;101346.63;;;5.78;100.00
81125;BME280;72192;52.114;5.424;2023-11-21T02:23:45;101344.44;;;5.83;100.00
81125;BME280;72192;52.114;5.424;2023-11-21T02:26:26;101349.56;;;5.86;100.00
81125;BME280;72192;52.114;5.424;2023-11-21T02:29:06;101349.31;;;5.89;100.00
81125;BME280;72192;52.114;5.424;2023-11-21T02:31:52;101345.31;;;5.94;100.00
81125;BME280;72192;52.114;5.424;2023-11-21T02:34:32;101344.94;;;5.99;100.00
81125;BME280;72192;52.114;5.424;2023-11-21T02:37:12;101349.97;;;6.03;100.00
81125;BME280;72192;52.114;5.424;2023-11-21T02:39:52;101350.69;;;6.06;100.00
81125;BME280;72192;52.114;5.424;2023-11-21T02:42:31;101348.50;;;6.11;100.00
81125;BME280;72192;52.114;5.424;2023-11-21T02:45:11;101359.69;;;6.16;100.00
81125;BME280;72192;52.114;5.424;2023-11-21T02:47:52;101359.94;;;6.24;100.00
81125;BME280;72192;52.114;5.424;2023-11-21T02:50:34;101354.69;;;6.33;100.00
81125;BME280;72192;52.114;5.424;2023-11-21T02:53:15;101355.06;;;6.40;100.00
81125;BME280;72192;52.114;5.424;2023-11-21T02:55:55;101353.69;;;6.46;100.00
81125;BME280;72192;52.114;5.424;2023-11-21T02:58:34;101355.16;;;6.50;100.00
81125;BME280;72192;52.114;5.424;2023-11-21T03:01:14;101353.06;;;6.53;100.00
81125;BME280;72192;52.114;5.424;2023-11-21T03:03:55;101345.63;;;6.57;100.00
81125;BME280;72192;52.114;5.424;2023-11-21T03:06:34;101356.97;;;6.60;100.00
81125;BME280;72192;52.114;5.424;2023-11-21T03:09:14;101351.34;;;6.64;100.00
81125;BME280;72192;52.114;5.424;2023-11-21T03:11:54;101354.75;;;6.66;100.00
81125;BME280;72192;52.114;5.424;2023-11-21T03:14:34;101353.41;;;6.71;100.00
81125;BME280;72192;52.114;5.424;2023-11-21T03:17:13;101346.78;;;6.75;100.00
81125;BME280;72192;52.114;5.424;2023-11-21T03:19:53;101340.56;;;6.75;100.00
81125;BME280;72192;52.114;5.424;2023-11-21T03:22:32;101345.81;;;6.76;100.00
81125;BME280;72192;52.114;5.424;2023-11-21T03:25:13;101356.31;;;6.79;100.00
81125;BME280;72192;52.114;5.424;2023-11-21T03:27:52;101360.69;;;6.80;100.00
81125;BME280;72192;52.114;5.424;2023-11-21T03:30:32;101352.25;;;6.85;100.00
81125;BME280;72192;52.114;5.424;2023-11-21T03:33:12;101350.28;;;6.87;100.00
81125;BME280;72192;52.114;5.424;2023-11-21T03:35:51;101358.34;;;6.87;100.00
81125;BME280;72192;52.114;5.424;2023-11-21T03:38:31;101357.13;;;6.91;100.00
81125;BME280;72192;52.114;5.424;2023-11-21T03:41:11;101351.50;;;6.94;100.00
81125;BME280;72192;52.114;5.424;2023-11-21T03:43:50;101363.78;;;6.97;100.00
81125;BME280;72192;52.114;5.424;2023-11-21T03:46:29;101359.03;;;7.00;100.00
81125;BME280;72192;52.114;5.424;2023-11-21T03:49:09;101363.28;;;7.03;100.00
81125;BME280;72192;52.114;5.424;2023-11-21T03:51:49;101367.69;;;7.04;100.00
81125;BME280;72192;52.114;5.424;2023-11-21T03:54:28;101369.25;;;7.06;100.00
81125;BME280;72192;52.114;5.424;2023-11-21T03:57:08;101376.22;;;7.09;100.00
81125;BME280;72192;52.114;5.424;2023-11-21T03:59:48;101381.31;;;7.12;100.00
81125;BME280;72192;52.114;5.424;2023-11-21T04:02:27;101382.75;;;7.16;100.00
81125;BME280;72192;52.114;5.424;2023-11-21T04:05:07;101389.47;;;7.22;100.00
81125;BME280;72192;52.114;5.424;2023-11-21T04:07:51;101391.88;;;7.25;100.00
81125;BME280;72192;52.114;5.424;2023-11-21T04:10:31;101387.13;;;7.28;100.00
81125;BME280;72192;52.114;5.424;2023-11-21T04:13:11;101395.78;;;7.32;100.00
81125;BME280;72192;52.114;5.424;2023-11-21T04:15:50;101401.13;;;7.32;100.00
81125;BME280;72192;52.114;5.424;2023-11-21T04:18:30;101395.50;;;7.35;100.00
81125;BME280;72192;52.114;5.424;2023-11-21T04:21:09;101407.94;;;7.36;100.00
81125;BME280;72192;52.114;5.424;2023-11-21T04:23:49;101412.81;;;7.42;100.00
81125;BME280;72192;52.114;5.424;2023-11-21T04:26:32;101404.63;;;7.43;100.00
81125;BME280;72192;52.114;5.424;2023-11-21T04:29:12;101411.81;;;7.43;100.00
81125;BME280;72192;52.114;5.424;2023-11-21T04:31:51;101421.72;;;7.42;100.00
81125;BME280;72192;52.114;5.424;2023-11-21T04:34:31;101417.34;;;7.41;100.00
81125;BME280;72192;52.114;5.424;2023-11-21T04:37:11;101426.09;;;7.43;100.00
81125;BME280;72192;52.114;5.424;2023-11-21T04:39:51;101421.59;;;7.44;100.00
81125;BME280;72192;52.114;5.424;2023-11-21T04:42:31;101431.34;;;7.45;100.00
81125;BME280;72192;52.114;5.424;2023-11-21T04:45:11;101437.19;;;7.50;100.00
81125;BME280;72192;52.114;5.424;2023-11-21T04:47:50;101448.66;;;7.52;100.00
81125;BME280;72192;52.114;5.424;2023-11-21T04:50:30;101443.28;;;7.52;100.00
81125;BME280;72192;52.114;5.424;2023-11-21T04:53:10;101450.22;;;7.55;100.00
81125;BME280;72192;52.114;5.424;2023-11-21T04:55:52;101443.03;;;7.55;100.00
81125;BME280;72192;52.114;5.424;2023-11-21T04:58:32;101439.47;;;7.55;100.00
81125;BME280;72192;52.114;5.424;2023-11-21T05:01:13;101442.78;;;7.58;100.00
81125;BME280;72192;52.114;5.424;2023-11-21T05:03:53;101440.09;;;7.58;100.00
81125;BME280;72192;52.114;5.424;2023-11-21T05:06:33;101446.56;;;7.56;100.00
81125;BME280;72192;52.114;5.424;2023-11-21T05:09:13;101452.56;;;7.59;100.00
81125;BME280;72192;52.114;5.424;2023-11-21T05:11:54;101466.69;;;7.61;100.00
81125;BME280;72192;52.114;5.424;2023-11-21T05:14:33;101455.94;;;7.61;100.00
81125;BME280;72192;52.114;5.424;2023-11-21T05:17:13;101457.94;;;7.59;100.00
81125;BME280;72192;52.114;5.424;2023-11-21T05:19:53;101461.47;;;7.60;100.00
81125;BME280;72192;52.114;5.424;2023-11-21T05:22:32;101470.38;;;7.60;100.00
81125;BME280;72192;52.114;5.424;2023-11-21T05:25:12;101469.25;;;7.63;100.00
81125;BME280;72192;52.114;5.424;2023-11-21T05:27:52;101467.28;;;7.65;100.00
81125;BME280;72192;52.114;5.424;2023-11-21T05:30:37;101463.50;;;7.67;100.00
81125;BME280;72192;52.114;5.424;2023-11-21T05:33:17;101474.13;;;7.69;100.00
81125;BME280;72192;52.114;5.424;2023-11-21T05:35:57;101476.69;;;7.70;100.00
81125;BME280;72192;52.114;5.424;2023-11-21T05:38:36;101477.41;;;7.72;100.00
81125;BME280;72192;52.114;5.424;2023-11-21T05:41:16;101476.41;;;7.73;100.00
81125;BME280;72192;52.114;5.424;2023-11-21T05:43:56;101485.09;;;7.77;100.00
81125;BME280;72192;52.114;5.424;2023-11-21T05:46:35;101485.19;;;7.75;100.00
81125;BME280;72192;52.114;5.424;2023-11-21T05:49:15;101495.56;;;7.80;100.00
81125;BME280;72192;52.114;5.424;2023-11-21T05:51:55;101492.47;;;7.85;100.00
81125;BME280;72192;52.114;5.424;2023-11-21T05:54:35;101498.47;;;7.88;100.00
81125;BME280;72192;52.114;5.424;2023-11-21T05:57:15;101499.31;;;7.89;100.00
81125;BME280;72192;52.114;5.424;2023-11-21T05:59:54;101504.44;;;7.92;100.00
81125;BME280;72192;52.114;5.424;2023-11-21T06:02:34;101507.13;;;7.92;100.00
81125;BME280;72192;52.114;5.424;2023-11-21T06:05:25;101508.81;;;7.93;100.00
81125;BME280;72192;52.114;5.424;2023-11-21T06:08:05;101515.19;;;7.92;100.00
81125;BME280;72192;52.114;5.424;2023-11-21T06:10:45;101513.47;;;7.91;100.00
81125;BME280;72192;52.114;5.424;2023-11-21T06:13:27;101520.69;;;7.90;100.00
81125;BME280;72192;52.114;5.424;2023-11-21T06:16:07;101527.63;;;7.93;100.00
81125;BME280;72192;52.114;5.424;2023-11-21T06:18:47;101529.34;;;7.94;100.00
81125;BME280;72192;52.114;5.424;2023-11-21T06:21:27;101526.66;;;7.94;100.00
81125;BME280;72192;52.114;5.424;2023-11-21T06:24:07;101535.44;;;7.96;100.00
81125;BME280;72192;52.114;5.424;2023-11-21T06:26:46;101530.81;;;7.98;100.00
81125;BME280;72192;52.114;5.424;2023-11-21T06:29:26;101536.91;;;8.00;100.00
81125;BME280;72192;52.114;5.424;2023-11-21T06:32:06;101538.34;;;8.04;100.00
81125;BME280;72192;52.114;5.424;2023-11-21T06:34:46;101538.19;;;8.05;100.00
81125;BME280;72192;52.114;5.424;2023-11-21T06:37:29;101540.66;;;8.09;100.00
81125;BME280;72192;52.114;5.424;2023-11-21T06:40:09;101550.16;;;8.13;100.00
81125;BME280;72192;52.114;5.424;2023-11-21T06:42:51;101550.00;;;8.14;100.00
81125;BME280;72192;52.114;5.424;2023-11-21T06:45:36;101545.38;;;8.16;100.00
81125;BME280;72192;52.114;5.424;2023-11-21T06:48:16;101554.16;;;8.18;100.00
81125;BME280;72192;52.114;5.424;2023-11-21T06:50:56;101555.88;;;8.19;100.00
81125;BME280;72192;52.114;5.424;2023-11-21T06:53:36;101558.44;;;8.21;100.00
81125;BME280;72192;52.114;5.424;2023-11-21T06:56:19;101560.00;;;8.23;100.00
81125;BME280;72192;52.114;5.424;2023-11-21T06:58:59;101563.41;;;8.25;100.00
81125;BME280;72192;52.114;5.424;2023-11-21T07:01:39;101561.59;;;8.26;100.00
81125;BME280;72192;52.114;5.424;2023-11-21T07:04:19;101568.53;;;8.28;100.00
81125;BME280;72192;52.114;5.424;2023-11-21T07:06:59;101577.31;;;8.30;100.00
81125;BME280;72192;52.114;5.424;2023-11-21T07:09:40;101586.97;;;8.33;100.00
81125;BME280;72192;52.114;5.424;2023-11-21T07:12:20;101590.31;;;8.37;100.00
81125;BME280;72192;52.114;5.424;2023-11-21T07:15:02;101588.47;;;8.37;100.00
81125;BME280;72192;52.114;5.424;2023-11-21T07:17:47;101596.97;;;8.42;100.00
81125;BME280;72192;52.114;5.424;2023-11-21T07:20:27;101596.97;;;8.42;100.00
81125;BME280;72192;52.114;5.424;2023-11-21T07:23:08;101607.38;;;8.47;100.00
81125;BME280;72192;52.114;5.424;2023-11-21T07:25:48;101604.41;;;8.50;100.00
81125;BME280;72192;52.114;5.424;2023-11-21T07:28:29;101612.91;;;8.55;100.00
81125;BME280;72192;52.114;5.424;2023-11-21T07:31:09;101611.03;;;8.67;100.00
81125;BME280;72192;52.114;5.424;2023-11-21T07:33:49;101618.69;;;8.71;100.00
81125;BME280;72192;52.114;5.424;2023-11-21T07:36:29;101614.03;;;8.73;100.00
81125;BME280;72192;52.114;5.424;2023-11-21T07:39:09;101618.19;;;8.77;100.00
81125;BME280;72192;52.114;5.424;2023-11-21T07:41:49;101619.59;;;8.81;100.00
81125;BME280;72192;52.114;5.424;2023-11-21T07:44:29;101620.22;;;8.85;100.00
81125;BME280;72192;52.114;5.424;2023-11-21T07:47:08;101616.41;;;8.87;100.00
81125;BME280;72192;52.114;5.424;2023-11-21T07:49:48;101626.03;;;8.90;100.00
81125;BME280;72192;52.114;5.424;2023-11-21T07:52:27;101633.00;;;8.93;100.00
81125;BME280;72192;52.114;5.424;2023-11-21T07:55:07;101636.28;;;8.96;100.00
81125;BME280;72192;52.114;5.424;2023-11-21T07:57:47;101649.47;;;8.99;100.00
81125;BME280;72192;52.114;5.424;2023-11-21T08:00:26;101646.38;;;9.04;100.00
81125;BME280;72192;52.114;5.424;2023-11-21T08:03:08;101647.97;;;9.06;100.00
81125;BME280;72192;52.114;5.424;2023-11-21T08:05:50;101651.94;;;9.12;100.00
81125;BME280;72192;52.114;5.424;2023-11-21T08:08:30;101662.19;;;9.18;100.00
81125;BME280;72192;52.114;5.424;2023-11-21T08:11:10;101663.47;;;9.24;100.00
81125;BME280;72192;52.114;5.424;2023-11-21T08:13:50;101664.78;;;9.29;100.00
81125;BME280;72192;52.114;5.424;2023-11-21T08:16:30;101680.44;;;9.35;100.00
81125;BME280;72192;52.114;5.424;2023-11-21T08:19:10;101679.88;;;9.41;100.00
81125;BME280;72192;52.114;5.424;2023-11-21T08:21:50;101690.97;;;9.48;100.00
81125;BME280;72192;52.114;5.424;2023-11-21T08:24:32;101698.78;;;9.51;100.00
81125;BME280;72192;52.114;5.424;2023-11-21T08:27:12;101693.16;;;9.54;100.00
81125;BME280;72192;52.114;5.424;2023-11-21T08:29:54;101705.50;;;9.57;100.00
81125;BME280;72192;52.114;5.424;2023-11-21T08:32:34;101700.81;;;9.59;100.00
81125;BME280;72192;52.114;5.424;2023-11-21T08:35:25;101710.59;;;9.60;100.00
81125;BME280;72192;52.114;5.424;2023-11-21T08:38:04;101717.69;;;9.61;100.00
81125;BME280;72192;52.114;5.424;2023-11-21T08:40:44;101728.63;;;9.59;100.00
81125;BME280;72192;52.114;5.424;2023-11-21T08:43:24;101731.31;;;9.59;100.00
81125;BME280;72192;52.114;5.424;2023-11-21T08:46:06;101734.00;;;9.59;100.00
81125;BME280;72192;52.114;5.424;2023-11-21T08:48:46;101734.88;;;9.60;100.00
81125;BME280;72192;52.114;5.424;2023-11-21T08:51:26;101738.41;;;9.60;100.00
81125;BME280;72192;52.114;5.424;2023-11-21T08:54:06;101740.84;;;9.63;100.00
81125;BME280;72192;52.114;5.424;2023-11-21T08:56:50;101745.13;;;9.66;100.00
81125;BME280;72192;52.114;5.424;2023-11-21T08:59:29;101747.69;;;9.67;100.00
81125;BME280;72192;52.114;5.424;2023-11-21T09:02:09;101750.22;;;9.69;100.00
81125;BME280;72192;52.114;5.424;2023-11-21T09:04:49;101744.56;;;9.72;100.00
81125;BME280;72192;52.114;5.424;2023-11-21T09:07:30;101740.19;;;9.81;100.00
81125;BME280;72192;52.114;5.424;2023-11-21T09:10:10;101750.03;;;9.91;100.00
81125;BME280;72192;52.114;5.424;2023-11-21T09:12:50;101769.97;;;10.10;100.00
81125;BME280;72192;52.114;5.424;2023-11-21T09:15:30;101775.25;;;10.21;100.00
81125;BME280;72192;52.114;5.424;2023-11-21T09:18:09;101783.34;;;10.21;100.00
81125;BME280;72192;52.114;5.424;2023-11-21T09:20:49;101780.94;;;10.18;100.00
81125;BME280;72192;52.114;5.424;2023-11-21T09:23:29;101785.03;;;10.12;100.00
81125;BME280;72192;52.114;5.424;2023-11-21T09:26:08;101788.16;;;10.07;100.00
81125;BME280;72192;52.114;5.424;2023-11-21T09:28:48;101795.78;;;10.02;100.00
81125;BME280;72192;52.114;5.424;2023-11-21T09:31:28;101797.53;;;10.03;100.00
81125;BME280;72192;52.114;5.424;2023-11-21T09:34:09;101798.47;;;10.02;100.00
81125;BME280;72192;52.114;5.424;2023-11-21T09:36:49;101802.06;;;10.03;100.00
81125;BME280;72192;52.114;5.424;2023-11-21T09:39:29;101808.16;;;10.05;100.00
81125;BME280;72192;52.114;5.424;2023-11-21T09:42:17;101822.38;;;10.07;100.00
81125;BME280;72192;52.114;5.424;2023-11-21T09:45:24;101827.91;;;10.05;100.00
81125;BME280;72192;52.114;5.424;2023-11-21T09:48:10;101825.59;;;10.01;100.00
81125;BME280;72192;52.114;5.424;2023-11-21T09:50:50;101836.81;;;9.96;100.00
81125;BME280;72192;52.114;5.424;2023-11-21T09:53:32;101843.44;;;9.92;100.00
81125;BME280;72192;52.114;5.424;2023-11-21T09:56:14;101843.28;;;9.84;100.00
81125;BME280;72192;52.114;5.424;2023-11-21T09:58:57;101849.22;;;9.78;100.00
81125;BME280;72192;52.114;5.424;2023-11-21T10:01:42;101845.09;;;9.74;100.00
81125;BME280;72192;52.114;5.424;2023-11-21T10:04:22;101857.81;;;9.72;100.00
81125;BME280;72192;52.114;5.424;2023-11-21T10:07:02;101848.63;;;9.74;100.00
81125;BME280;72192;52.114;5.424;2023-11-21T10:09:36;101855.66;;;9.87;100.00
81125;BME280;72192;52.114;5.424;2023-11-21T10:12:22;101854.19;;;9.83;100.00
81125;BME280;72192;52.114;5.424;2023-11-21T10:15:08;101859.16;;;9.77;100.00
81125;BME280;72192;52.114;5.424;2023-11-21T10:17:54;101867.63;;;9.73;100.00
81125;BME280;72192;52.114;5.424;2023-11-21T10:20:35;101868.88;;;9.69;100.00
81125;BME280;72192;52.114;5.424;2023-11-21T10:23:19;101883.81;;;9.73;100.00
81125;BME280;72192;52.114;5.424;2023-11-21T10:26:01;101888.53;;;9.81;100.00
81125;BME280;72192;52.114;5.424;2023-11-21T10:28:57;101891.44;;;9.89;100.00
81125;BME280;72192;52.114;5.424;2023-11-21T10:31:38;101886.50;;;9.94;100.00
81125;BME280;72192;52.114;5.424;2023-11-21T10:34:19;101897.72;;;9.99;100.00
81125;BME280;72192;52.114;5.424;2023-11-21T10:37:11;101892.19;;;10.00;100.00
81125;BME280;72192;52.114;5.424;2023-11-21T10:39:55;101899.44;;;10.00;100.00
81125;BME280;72192;52.114;5.424;2023-11-21T10:42:37;101909.78;;;9.95;100.00
81125;BME280;72192;52.114;5.424;2023-11-21T10:45:20;101916.13;;;9.84;100.00
81125;BME280;72192;52.114;5.424;2023-11-21T10:48:01;101926.72;;;9.76;100.00
81125;BME280;72192;52.114;5.424;2023-11-21T10:50:49;101934.59;;;9.68;100.00
81125;BME280;72192;52.114;5.424;2023-11-21T10:53:29;101936.94;;;9.61;100.00
81125;BME280;72192;52.114;5.424;2023-11-21T10:56:09;101943.59;;;9.57;100.00
81125;BME280;72192;52.114;5.424;2023-11-21T10:58:56;101955.75;;;9.52;100.00
81125;BME280;72192;52.114;5.424;2023-11-21T11:01:36;101954.16;;;9.49;100.00
81125;BME280;72192;52.114;5.424;2023-11-21T11:04:18;101958.72;;;9.48;100.00
81125;BME280;72192;52.114;5.424;2023-11-21T11:07:02;101954.03;;;9.51;100.00
81125;BME280;72192;52.114;5.424;2023-11-21T11:09:44;101954.53;;;9.56;100.00
81125;BME280;72192;52.114;5.424;2023-11-21T11:12:25;101958.19;;;9.55;100.00
81125;BME280;72192;52.114;5.424;2023-11-21T11:15:08;101946.44;;;9.56;100.00
81125;BME280;72192;52.114;5.424;2023-11-21T11:17:48;101949.84;;;9.58;100.00
81125;BME280;72192;52.114;5.424;2023-11-21T11:20:37;101952.28;;;9.61;100.00
81125;BME280;72192;52.114;5.424;2023-11-21T11:23:37;101959.13;;;9.65;100.00
81125;BME280;72192;52.114;5.424;2023-11-21T11:36:06;101968.00;;;9.56;100.00
81125;BME280;72192;52.114;5.424;2023-11-21T11:38:53;101964.69;;;9.52;100.00
81125;BME280;72192;52.114;5.424;2023-11-21T11:41:34;101972.28;;;9.58;100.00
81125;BME280;72192;52.114;5.424;2023-11-21T11:47:29;101985.44;;;9.72;100.00
81125;BME280;72192;52.114;5.424;2023-11-21T11:50:17;101979.72;;;9.87;100.00
81125;BME280;72192;52.114;5.424;2023-11-21T11:53:14;101981.78;;;9.94;100.00
81125;BME280;72192;52.114;5.424;2023-11-21T11:56:22;101998.06;;;9.93;100.00
81125;BME280;72192;52.114;5.424;2023-11-21T11:59:04;101998.13;;;9.82;100.00
81125;BME280;72192;52.114;5.424;2023-11-21T12:01:57;101999.81;;;9.94;100.00
81125;BME280;72192;52.114;5.424;2023-11-21T12:04:48;102000.66;;;9.94;100.00
81125;BME280;72192;52.114;5.424;2023-11-21T12:07:53;102013.03;;;9.97;100.00
81125;BME280;72192;52.114;5.424;2023-11-21T12:10:39;102015.38;;;9.90;100.00
81125;BME280;72192;52.114;5.424;2023-11-21T12:13:18;102013.69;;;9.89;100.00
81125;BME280;72192;52.114;5.424;2023-11-21T12:15:59;102008.56;;;9.86;100.00
81125;BME280;72192;52.114;5.424;2023-11-21T12:18:39;102014.09;;;9.85;100.00
81125;BME280;72192;52.114;5.424;2023-11-21T12:21:20;102021.69;;;9.80;100.00
81125;BME280;72192;52.114;5.424;2023-11-21T12:23:59;102025.25;;;9.80;100.00
81125;BME280;72192;52.114;5.424;2023-11-21T12:26:43;102024.25;;;9.81;100.00
81125;BME280;72192;52.114;5.424;2023-11-21T12:29:22;102019.72;;;9.82;100.00
81125;BME280;72192;52.114;5.424;2023-11-21T12:32:02;102032.34;;;9.81;100.00
81125;BME280;72192;52.114;5.424;2023-11-21T12:34:44;102024.13;;;9.83;100.00
81125;BME280;72192;52.114;5.424;2023-11-21T12:37:25;102024.00;;;9.84;100.00
81125;BME280;72192;52.114;5.424;2023-11-21T12:40:09;102028.28;;;9.87;100.00
81125;BME280;72192;52.114;5.424;2023-11-21T12:42:53;102030.50;;;9.82;100.00
81125;BME280;72192;52.114;5.424;2023-11-21T12:45:41;102037.88;;;9.80;100.00
81125;BME280;72192;52.114;5.424;2023-11-21T12:48:23;102038.72;;;9.80;100.00
81125;BME280;72192;52.114;5.424;2023-11-21T12:51:06;102044.13;;;9.80;100.00
81125;BME280;72192;52.114;5.424;2023-11-21T12:53:46;102043.41;;;9.78;100.00
81125;BME280;72192;52.114;5.424;2023-11-21T12:56:26;102050.78;;;9.76;100.00
81125;BME280;72192;52.114;5.424;2023-11-21T12:59:05;102058.38;;;9.71;100.00
81125;BME280;72192;52.114;5.424;2023-11-21T13:01:46;102052.00;;;9.72;100.00
81125;BME280;72192;52.114;5.424;2023-11-21T13:04:31;102054.59;;;9.73;100.00
81125;BME280;72192;52.114;5.424;2023-11-21T13:07:12;102058.00;;;9.75;100.00
81125;BME280;72192;52.114;5.424;2023-11-21T13:09:53;102069.38;;;9.79;100.00
81125;BME280;72192;52.114;5.424;2023-11-21T13:12:33;102068.88;;;9.85;100.00
81125;BME280;72192;52.114;5.424;2023-11-21T13:15:16;102074.16;;;9.87;100.00
81125;BME280;72192;52.114;5.424;2023-11-21T13:18:00;102074.00;;;9.88;100.00
81125;BME280;72192;52.114;5.424;2023-11-21T13:20:40;102076.72;;;9.88;100.00
81125;BME280;72192;52.114;5.424;2023-11-21T13:23:25;102084.94;;;9.87;100.00
81125;BME280;72192;52.114;5.424;2023-11-21T13:26:07;102091.47;;;9.84;100.00
81125;BME280;72192;52.114;5.424;2023-11-21T13:28:47;102087.28;;;9.80;100.00
81125;BME280;72192;52.114;5.424;2023-11-21T13:31:27;102092.94;;;9.77;100.00
81125;BME280;72192;52.114;5.424;2023-11-21T13:34:11;102099.56;;;9.73;100.00
81125;BME280;72192;52.114;5.424;2023-11-21T13:40:11;102096.25;;;9.69;100.00
81125;BME280;72192;52.114;5.424;2023-11-21T13:42:54;102098.25;;;9.67;100.00
81125;BME280;72192;52.114;5.424;2023-11-21T13:45:38;102108.91;;;9.69;100.00
81125;BME280;72192;52.114;5.424;2023-11-21T13:48:19;102116.00;;;9.70;100.00
81125;BME280;72192;52.114;5.424;2023-11-21T13:51:09;102116.97;;;9.69;100.00
81125;BME280;72192;52.114;5.424;2023-11-21T13:53:55;102119.94;;;9.66;100.00
81125;BME280;72192;52.114;5.424;2023-11-21T13:56:38;102123.38;;;9.57;100.00
81125;BME280;72192;52.114;5.424;2023-11-21T13:59:26;102136.38;;;9.52;100.00
81125;BME280;72192;52.114;5.424;2023-11-21T14:02:08;102137.88;;;9.44;100.00
81125;BME280;72192;52.114;5.424;2023-11-21T14:04:57;102145.84;;;9.35;100.00
81125;BME280;72192;52.114;5.424;2023-11-21T14:07:39;102144.88;;;9.25;100.00
81125;BME280;72192;52.114;5.424;2023-11-21T14:10:25;102138.38;;;9.16;100.00
81125;BME280;72192;52.114;5.424;2023-11-21T14:13:06;102143.38;;;9.09;100.00
81125;BME280;72192;52.114;5.424;2023-11-21T14:15:45;102151.72;;;9.06;100.00
81125;BME280;72192;52.114;5.424;2023-11-21T14:18:29;102154.53;;;9.05;100.00
81125;BME280;72192;52.114;5.424;2023-11-21T14:21:17;102158.19;;;9.04;100.00